Spennymoor, United Kingdom
Current Conditions -  °F | °C
As of 2:20 PM on Saturday 25 Oct 2014 (Local Time) from EGNV Reporting Station
Scattered Clouds Scattered Clouds  
Wind Chill: 13°   Ceiling: Unl
Heat Index: 13°   Visibility: 6mi
Dew Point:   Wind: 18mph
Humidity: 72%   Direction: 210°SSW
Pressure: 29.83"   Gusts: NA
Location:  54.7°N, 1.6°W
Report Text: EGNV 251320Z 21016KT 9999 FEW023 SCT048 13/08 Q1010
Loading
Personal Weather Stations






























Interactive Weather Map
Tropical Storm Tracking
New forecast layout! Learn more

10-Day Weather Forecast

Advertisements
Track Severe Weather on mobile